Time;durP1;ratioP1;P1;durP2;ratioP2;P2;SDS_P1;SDS_P2;PMS_P1;PMS_P2;Temp;Humidity;BMP_temperature;BMP_pressure;BME280_temperature;BME280_humidity;BME280_pressure;Samples;Min_cycle;Max_cycle;Signal;HPM_P1;HPM_P2
2023/05/11 00:01:58;;;;;;;12.10;2.30;;;;;;;12.64;53.39;100364.06;106691;1274;22729;-62
2023/05/11 00:04:29;;;;;;;16.40;3.80;;;;;;;12.61;53.62;100362.40;106645;1269;22532;-61
2023/05/11 00:07:00;;;;;;;12.40;3.30;;;;;;;12.59;53.80;100365.98;106595;1261;23947;-62
2023/05/11 00:09:31;;;;;;;11.50;2.90;;;;;;;12.55;53.75;100365.55;106661;1275;22520;-62
2023/05/11 00:12:02;;;;;;;9.60;2.20;;;;;;;12.53;54.04;100365.77;106712;1275;22573;-62
2023/05/11 00:14:33;;;;;;;11.10;3.10;;;;;;;12.51;54.10;100368.04;110511;1267;22269;-62
2023/05/11 00:17:04;;;;;;;13.40;3.30;;;;;;;12.49;54.21;100368.25;110443;1269;22189;-62
2023/05/11 00:19:35;;;;;;;17.30;5.30;;;;;;;12.46;54.24;100364.81;110444;1267;22154;-63
2023/05/11 00:22:06;;;;;;;16.00;5.20;;;;;;;12.42;54.42;100362.56;110442;1263;22220;-62
2023/05/11 00:24:38;;;;;;;18.40;5.60;;;;;;;12.39;54.61;100361.31;110454;1267;22320;-62
2023/05/11 00:27:09;;;;;;;20.80;7.30;;;;;;;12.38;54.60;100361.48;110458;1263;22637;-62
2023/05/11 00:29:39;;;;;;;17.40;4.30;;;;;;;12.36;54.77;100362.39;110490;1263;22330;-62
2023/05/11 00:32:10;;;;;;;16.40;4.40;;;;;;;12.32;54.82;100365.43;110495;1264;22192;-62
2023/05/11 00:34:41;;;;;;;16.00;3.40;;;;;;;12.29;55.12;100363.91;110487;1263;22356;-62
2023/05/11 00:37:12;;;;;;;9.00;2.90;;;;;;;12.26;55.15;100361.73;110451;1263;22137;-62
2023/05/11 00:39:44;;;;;;;9.70;2.60;;;;;;;12.24;55.33;100358.14;109312;1270;22858;-62
2023/05/11 00:42:15;;;;;;;16.10;4.20;;;;;;;12.21;55.58;100359.42;110455;1274;22168;-62
2023/05/11 00:44:46;;;;;;;19.60;5.10;;;;;;;12.15;55.63;100361.39;110450;1263;22299;-62
2023/05/11 00:47:17;;;;;;;15.10;4.10;;;;;;;12.12;55.77;100363.67;110469;1267;22387;-62
2023/05/11 00:49:52;;;;;;;14.80;3.60;;;;;;;12.07;55.77;100359.13;110453;1267;22149;-62
2023/05/11 00:52:24;;;;;;;12.20;2.60;;;;;;;12.03;56.03;100365.27;110077;1263;22534;-61
2023/05/11 00:54:55;;;;;;;11.60;3.10;;;;;;;12.00;56.07;100361.91;107900;1260;24703;-60
2023/05/11 00:57:27;;;;;;;9.90;2.40;;;;;;;11.96;56.23;100363.76;106661;1275;24177;-60
2023/05/11 00:59:58;;;;;;;9.50;2.50;;;;;;;11.94;56.29;100363.60;106709;1271;25463;-60
2023/05/11 01:02:29;;;;;;;11.60;2.60;;;;;;;11.90;56.51;100361.72;106656;1267;22906;-61
2023/05/11 01:05:01;;;;;;;14.20;2.90;;;;;;;11.85;56.62;100362.65;106644;1273;23955;-61
2023/05/11 01:07:37;;;;;;;14.10;4.30;;;;;;;11.77;56.81;100360.39;110436;1267;23050;-61
2023/05/11 01:10:15;;;;;;;13.80;4.50;;;;;;;11.69;57.06;100360.36;110361;1270;22155;-61
2023/05/11 01:12:58;;;;;;;14.60;3.90;;;;;;;11.63;57.35;100357.08;110468;1267;22332;-61
2023/05/11 01:15:36;;;;;;;21.10;5.50;;;;;;;11.57;57.36;100360.21;110378;1275;22238;-62
2023/05/11 01:18:18;;;;;;;34.90;11.20;;;;;;;11.52;57.39;100360.09;110461;1275;23037;-62
2023/05/11 01:20:53;;;;;;;38.30;13.00;;;;;;;11.48;57.59;100362.45;110391;1270;22286;-61
2023/05/11 01:23:55;;;;;;;39.60;12.90;;;;;;;11.45;57.93;100362.05;110491;1267;22193;-61
2023/05/11 01:26:54;;;;;;;38.60;12.70;;;;;;;11.43;58.13;100363.55;109929;1270;22221;-61
2023/05/11 01:29:50;;;;;;;38.50;12.60;;;;;;;11.39;58.34;100359.91;109691;1276;22208;-62
2023/05/11 01:32:25;;;;;;;33.30;11.60;;;;;;;11.37;58.36;100360.65;109695;1280;22225;-62
2023/05/11 01:35:02;;;;;;;31.60;11.30;;;;;;;11.35;58.79;100360.41;109645;1280;22738;-61
2023/05/11 01:37:35;;;;;;;26.70;10.10;;;;;;;11.34;58.80;100360.86;109704;1276;22438;-62
2023/05/11 01:40:12;;;;;;;25.50;8.00;;;;;;;11.33;58.85;100362.16;109719;1279;22517;-61
2023/05/11 01:42:46;;;;;;;19.70;5.70;;;;;;;11.32;58.82;100362.38;109695;1270;23486;-61
2023/05/11 01:45:19;;;;;;;19.40;5.40;;;;;;;11.33;59.27;100361.34;106419;1285;26465;-61
2023/05/11 01:47:52;;;;;;;22.50;5.60;;;;;;;11.34;59.25;100360.10;109699;1283;22261;-62
2023/05/11 01:50:25;;;;;;;16.50;4.80;;;;;;;11.36;59.27;100360.21;109721;1281;22323;-61
2023/05/11 01:52:56;;;;;;;18.50;4.40;;;;;;;11.38;59.35;100360.11;109673;1280;22438;-61
2023/05/11 01:55:31;;;;;;;14.00;3.70;;;;;;;11.39;59.49;100363.98;109695;1278;22207;-61
2023/05/11 01:58:04;;;;;;;16.40;3.40;;;;;;;11.41;59.53;100369.06;109719;1270;22940;-61
2023/05/11 02:00:35;;;;;;;18.00;3.40;;;;;;;11.41;59.42;100371.80;109714;1270;22360;-61
2023/05/11 02:03:09;;;;;;;11.00;2.90;;;;;;;11.42;59.62;100369.38;109685;1281;23220;-61
2023/05/11 02:05:42;;;;;;;14.30;3.50;;;;;;;11.42;59.58;100369.73;107047;1266;24329;-61
2023/05/11 02:08:15;;;;;;;15.10;3.70;;;;;;;11.42;59.55;100371.16;106514;1273;22770;-61
2023/05/11 02:10:48;;;;;;;13.30;3.30;;;;;;;11.43;59.67;100373.66;108168;1272;22539;-61
2023/05/11 02:13:22;;;;;;;13.70;3.60;;;;;;;11.43;59.77;100376.09;106584;1268;23936;-61
2023/05/11 02:15:56;;;;;;;12.00;3.40;;;;;;;11.40;59.86;100373.20;110413;1259;22165;-61
2023/05/11 02:18:28;;;;;;;12.70;3.10;;;;;;;11.38;60.04;100374.48;110463;1274;22161;-61
2023/05/11 02:21:01;;;;;;;20.70;6.10;;;;;;;11.37;59.94;100371.80;109033;1263;22514;-62
2023/05/11 02:23:34;;;;;;;19.00;6.60;;;;;;;11.36;60.18;100375.89;106604;1272;25460;-61
2023/05/11 02:26:06;;;;;;;21.30;6.80;;;;;;;11.35;59.98;100378.61;110488;1270;22926;-61
2023/05/11 02:28:37;;;;;;;18.30;5.70;;;;;;;11.35;59.99;100386.69;110490;1267;23511;-61
2023/05/11 02:31:16;;;;;;;16.30;4.60;;;;;;;11.34;60.25;100381.95;110458;1272;23015;-61
2023/05/11 02:33:50;;;;;;;16.30;4.80;;;;;;;11.34;60.24;100383.21;106758;1267;22625;-61
2023/05/11 02:36:23;;;;;;;14.90;4.20;;;;;;;11.34;60.17;100382.52;110336;1275;22520;-61
2023/05/11 02:39:02;;;;;;;13.70;3.50;;;;;;;11.34;60.31;100389.30;107202;1267;22671;-61
2023/05/11 02:41:34;;;;;;;12.70;3.40;;;;;;;11.33;60.31;100383.85;110325;1270;22420;-62
2023/05/11 02:44:08;;;;;;;12.70;3.40;;;;;;;11.31;60.18;100384.47;108814;1269;24836;-61
2023/05/11 02:46:42;;;;;;;12.10;3.30;;;;;;;11.29;60.36;100386.79;109744;1267;22534;-61
2023/05/11 02:49:15;;;;;;;9.80;2.90;;;;;;;11.28;60.19;100380.77;107944;1274;27064;-62
2023/05/11 02:51:48;;;;;;;14.50;3.40;;;;;;;11.27;60.39;100380.09;106737;1253;25690;-62
2023/05/11 02:54:20;;;;;;;12.40;3.50;;;;;;;11.27;60.29;100383.94;110478;1268;22153;-62
2023/05/11 02:56:52;;;;;;;12.20;2.90;;;;;;;11.28;60.30;100386.05;110482;1267;22220;-63
2023/05/11 02:59:24;;;;;;;9.90;2.90;;;;;;;11.27;60.44;100383.56;110455;1267;22384;-62
2023/05/11 03:01:55;;;;;;;11.80;3.00;;;;;;;11.27;60.33;100378.61;110471;1260;23304;-62
2023/05/11 03:04:26;;;;;;;12.80;3.60;;;;;;;11.27;60.31;100381.92;110464;1263;23299;-62
2023/05/11 03:06:57;;;;;;;12.00;3.10;;;;;;;11.28;60.24;100384.21;110468;1267;22189;-62
2023/05/11 03:09:28;;;;;;;17.70;3.10;;;;;;;11.28;60.36;100378.94;110478;1274;22214;-62
2023/05/11 03:12:01;;;;;;;10.00;2.70;;;;;;;11.27;60.39;100381.61;110460;1267;22194;-63
2023/05/11 03:14:33;;;;;;;12.60;3.00;;;;;;;11.26;60.23;100380.33;110456;1267;22529;-62
2023/05/11 03:17:06;;;;;;;10.40;3.10;;;;;;;11.25;60.24;100382.14;110507;1260;22939;-62
2023/05/11 03:19:40;;;;;;;10.60;2.90;;;;;;;11.24;60.29;100378.20;110489;1272;22219;-62
2023/05/11 03:22:12;;;;;;;10.60;2.90;;;;;;;11.23;60.49;100381.84;110456;1267;22170;-62
2023/05/11 03:24:44;;;;;;;10.70;3.10;;;;;;;11.22;60.45;100383.84;110441;1267;22316;-63
2023/05/11 03:27:15;;;;;;;10.90;2.90;;;;;;;11.20;60.44;100383.58;110457;1275;22193;-63
2023/05/11 03:29:47;;;;;;;11.30;2.50;;;;;;;11.20;60.42;100383.42;110463;1260;23221;-63
2023/05/11 03:32:18;;;;;;;13.70;3.50;;;;;;;11.20;60.57;100389.76;110475;1260;22214;-63
2023/05/11 03:34:49;;;;;;;9.00;3.00;;;;;;;11.18;60.55;100394.44;110490;1267;23193;-62
2023/05/11 03:37:20;;;;;;;11.10;2.80;;;;;;;11.15;60.76;100395.15;110485;1263;22204;-63
2023/05/11 03:39:57;;;;;;;12.60;2.90;;;;;;;11.10;60.77;100391.30;106740;1262;23148;-61
2023/05/11 03:42:29;;;;;;;10.10;2.80;;;;;;;11.08;60.95;100388.56;106564;1275;22658;-60
2023/05/11 03:45:01;;;;;;;10.90;3.10;;;;;;;11.05;60.89;100389.59;108712;1275;22553;-62
2023/05/11 03:47:33;;;;;;;15.10;4.60;;;;;;;11.04;60.91;100391.02;106492;1267;22545;-62
2023/05/11 03:50:07;;;;;;;10.70;3.10;;;;;;;11.03;61.07;100388.27;110490;1264;22167;-61
2023/05/11 03:52:39;;;;;;;13.50;3.50;;;;;;;11.00;61.25;100388.51;110460;1267;22420;-62
2023/05/11 03:55:11;;;;;;;14.80;3.70;;;;;;;10.98;61.13;100391.38;110477;1267;22299;-62
2023/05/11 03:57:42;;;;;;;13.90;3.90;;;;;;;10.98;61.50;100388.92;110439;1267;22602;-62
2023/05/11 04:00:15;;;;;;;15.50;4.30;;;;;;;10.97;61.46;100388.00;110427;1267;22181;-62
2023/05/11 04:02:46;;;;;;;18.10;4.90;;;;;;;10.99;61.43;100393.83;110486;1263;22252;-62
2023/05/11 04:05:17;;;;;;;12.20;4.20;;;;;;;11.00;61.51;100393.59;110461;1267;22220;-62
2023/05/11 04:07:50;;;;;;;14.60;3.70;;;;;;;11.01;61.42;100391.02;110427;1263;22229;-62
2023/05/11 04:10:22;;;;;;;20.40;4.00;;;;;;;11.02;61.50;100391.19;110471;1267;22337;-63
2023/05/11 04:12:53;;;;;;;11.80;3.70;;;;;;;11.02;61.71;100392.16;110398;1267;22202;-60
2023/05/11 04:15:24;;;;;;;13.90;3.80;;;;;;;11.03;61.58;100397.83;110443;1267;22153;-61
2023/05/11 04:17:55;;;;;;;16.10;4.40;;;;;;;11.04;61.87;100396.43;108419;1261;24440;-63
2023/05/11 04:20:27;;;;;;;12.40;4.10;;;;;;;11.05;61.75;100397.90;110423;1267;23290;-64
2023/05/11 04:22:58;;;;;;;16.40;4.00;;;;;;;11.07;61.80;100392.20;110457;1259;22192;-63
2023/05/11 04:25:28;;;;;;;14.40;4.20;;;;;;;11.10;61.62;100392.93;110491;1267;22186;-63
2023/05/11 04:27:59;;;;;;;15.60;4.10;;;;;;;11.13;61.66;100396.95;110481;1262;22277;-61
2023/05/11 04:30:30;;;;;;;17.90;3.50;;;;;;;11.14;61.60;100402.66;110459;1274;22392;-61
2023/05/11 04:33:01;;;;;;;17.50;4.40;;;;;;;11.17;61.58;100400.47;110486;1267;23000;-61
2023/05/11 04:35:32;;;;;;;21.10;5.00;;;;;;;11.18;61.55;100402.54;110483;1264;22339;-61
2023/05/11 04:38:02;;;;;;;15.10;4.20;;;;;;;11.20;61.70;100399.51;110487;1267;22180;-61
2023/05/11 04:40:35;;;;;;;12.60;3.30;;;;;;;11.21;61.37;100401.46;110445;1267;22418;-61
2023/05/11 04:43:06;;;;;;;12.90;4.00;;;;;;;11.21;61.43;100401.20;110444;1260;23115;-62
2023/05/11 04:45:37;;;;;;;19.90;3.20;;;;;;;11.23;61.62;100404.29;110461;1259;22308;-62
2023/05/11 04:48:08;;;;;;;14.80;4.10;;;;;;;11.25;61.50;100402.41;110450;1272;22164;-63
2023/05/11 04:50:39;;;;;;;16.10;3.60;;;;;;;11.28;61.44;100404.50;110472;1264;22352;-62
2023/05/11 04:53:10;;;;;;;12.70;3.60;;;;;;;11.29;61.31;100405.55;110477;1263;22200;-63
2023/05/11 04:55:41;;;;;;;16.90;3.50;;;;;;;11.30;61.32;100407.42;110473;1259;22880;-62
2023/05/11 04:58:12;;;;;;;15.90;4.10;;;;;;;11.31;61.70;100409.04;110427;1267;22286;-63
2023/05/11 05:00:43;;;;;;;14.30;3.90;;;;;;;11.34;61.74;100409.73;110410;1259;22272;-62
2023/05/11 05:03:14;;;;;;;14.80;3.70;;;;;;;11.38;61.74;100411.39;110502;1274;22204;-62
2023/05/11 05:05:45;;;;;;;20.10;3.60;;;;;;;11.41;61.49;100411.45;110441;1263;22950;-63
2023/05/11 05:08:17;;;;;;;19.80;4.00;;;;;;;11.45;61.56;100416.64;110494;1264;23038;-62
2023/05/11 05:10:48;;;;;;;15.20;3.30;;;;;;;11.48;61.56;100417.87;110447;1266;23073;-62
2023/05/11 05:13:19;;;;;;;11.50;3.00;;;;;;;11.50;61.64;100408.25;110438;1264;22197;-62
2023/05/11 05:15:50;;;;;;;13.20;3.40;;;;;;;11.52;61.65;100418.86;110459;1259;22233;-62
2023/05/11 05:18:21;;;;;;;12.60;3.50;;;;;;;11.55;61.70;100417.64;110471;1275;22401;-62
2023/05/11 05:20:52;;;;;;;14.50;3.50;;;;;;;11.58;61.45;100413.58;110474;1267;22401;-62
2023/05/11 05:23:23;;;;;;;13.90;3.80;;;;;;;11.60;61.29;100420.93;110445;1269;22377;-62
2023/05/11 05:25:54;;;;;;;14.90;3.50;;;;;;;11.63;61.72;100414.89;110446;1267;22249;-62
2023/05/11 05:28:25;;;;;;;15.10;3.70;;;;;;;11.67;61.70;100414.22;110451;1267;22420;-62
2023/05/11 05:30:56;;;;;;;16.70;3.10;;;;;;;11.72;61.48;100416.75;110496;1259;22288;-62
2023/05/11 05:33:27;;;;;;;16.00;3.70;;;;;;;11.78;61.45;100421.63;110468;1268;22369;-63
2023/05/11 05:35:58;;;;;;;18.50;4.60;;;;;;;11.82;61.54;100419.88;107421;1253;22548;-62
2023/05/11 05:38:29;;;;;;;21.60;5.20;;;;;;;11.86;61.48;100419.05;106618;1267;22523;-62
2023/05/11 05:40:59;;;;;;;20.90;4.50;;;;;;;11.87;61.44;100424.40;110433;1268;22466;-62
2023/05/11 05:43:30;;;;;;;18.10;3.90;;;;;;;11.92;61.42;100424.30;110448;1266;22300;-62
2023/05/11 05:46:03;;;;;;;15.70;4.10;;;;;;;11.97;61.36;100425.86;110405;1267;23019;-62
2023/05/11 05:48:34;;;;;;;27.60;4.30;;;;;;;12.02;61.42;100429.55;110401;1267;22568;-62
2023/05/11 05:51:05;;;;;;;17.90;4.00;;;;;;;12.07;61.30;100432.99;110432;1267;22528;-62
2023/05/11 05:53:36;;;;;;;14.30;3.50;;;;;;;12.13;61.30;100432.19;110443;1267;22902;-63
2023/05/11 05:56:09;;;;;;;13.80;4.40;;;;;;;12.21;61.38;100429.60;110465;1268;23032;-63
2023/05/11 05:58:39;;;;;;;13.10;3.90;;;;;;;12.28;61.27;100433.73;110469;1266;22300;-64
2023/05/11 06:01:23;;;;;;;20.30;4.80;;;;;;;12.35;61.27;100437.14;110468;1268;23194;-64
2023/05/11 06:03:55;;;;;;;12.20;3.40;;;;;;;12.45;61.77;100443.66;110421;1267;22373;-64
2023/05/11 06:06:26;;;;;;;13.70;3.50;;;;;;;12.53;61.31;100442.81;110426;1259;22145;-63
2023/05/11 06:08:57;;;;;;;17.30;4.40;;;;;;;12.61;61.26;100439.71;107314;1264;25642;-63
2023/05/11 06:11:28;;;;;;;16.50;3.60;;;;;;;12.68;61.42;100438.58;106398;1274;22521;-63
2023/05/11 06:13:59;;;;;;;15.20;3.70;;;;;;;12.75;61.01;100437.87;110462;1267;22164;-64
2023/05/11 06:16:35;;;;;;;15.70;3.80;;;;;;;12.81;60.95;100436.61;110435;1267;22934;-62
2023/05/11 06:19:08;;;;;;;22.20;3.80;;;;;;;12.90;61.10;100439.98;108881;1255;22518;-62
2023/05/11 06:21:44;;;;;;;16.60;3.50;;;;;;;13.00;61.20;100441.55;110438;1260;22281;-62
2023/05/11 06:24:17;;;;;;;16.70;3.90;;;;;;;13.14;61.27;100438.89;110435;1271;22304;-62
2023/05/11 06:26:49;;;;;;;18.60;3.60;;;;;;;13.28;60.89;100440.43;109767;1269;22546;-62
2023/05/11 06:29:21;;;;;;;14.00;3.50;;;;;;;13.41;60.79;100438.42;107004;1268;26003;-63
2023/05/11 06:32:19;;;;;;;13.10;4.20;;;;;;;13.53;60.99;100441.25;109173;1267;25233;-62
2023/05/11 06:34:57;;;;;;;21.40;4.20;;;;;;;13.68;60.90;100434.98;106834;1268;24212;-63
2023/05/11 06:37:34;;;;;;;9.80;3.00;;;;;;;13.81;61.10;100434.02;110426;1262;22156;-64
2023/05/11 06:40:08;;;;;;;12.30;4.00;;;;;;;13.94;61.06;100433.68;103436;1268;5570817;-62
2023/05/11 06:42:39;;;;;;;16.70;3.60;;;;;;;14.06;60.90;100437.30;110472;1267;23017;-64
2023/05/11 06:45:11;;;;;;;11.60;3.50;;;;;;;14.17;60.71;100437.40;110449;1272;22188;-64
2023/05/11 06:47:42;;;;;;;15.40;4.30;;;;;;;14.29;60.77;100438.41;106836;1275;22656;-62
2023/05/11 06:50:13;;;;;;;12.10;2.90;;;;;;;14.42;60.67;100434.67;106424;1272;22599;-62
2023/05/11 06:52:44;;;;;;;16.70;3.40;;;;;;;14.50;60.22;100434.02;106309;1267;22622;-62
2023/05/11 06:55:15;;;;;;;16.20;3.40;;;;;;;14.57;60.23;100435.73;106347;1267;22674;-62
2023/05/11 06:57:47;;;;;;;16.60;3.40;;;;;;;14.65;60.23;100438.70;106506;1267;22609;-62
2023/05/11 07:00:20;;;;;;;12.90;3.80;;;;;;;14.77;60.20;100439.98;106360;1268;25359;-62
2023/05/11 07:02:51;;;;;;;14.20;4.20;;;;;;;14.84;59.73;100437.02;110472;1267;22326;-62
2023/05/11 07:05:23;;;;;;;10.90;3.40;;;;;;;14.87;59.69;100435.44;110448;1260;22316;-62
2023/05/11 07:07:54;;;;;;;14.50;2.90;;;;;;;14.91;59.73;100434.75;110444;1267;22127;-61
2023/05/11 07:10:25;;;;;;;11.40;3.70;;;;;;;14.98;59.82;100433.29;110476;1268;22287;-61
2023/05/11 07:12:56;;;;;;;13.50;3.10;;;;;;;15.07;59.68;100432.52;110411;1267;23060;-61
2023/05/11 07:15:27;;;;;;;12.70;3.50;;;;;;;15.14;59.55;100434.69;110428;1273;22127;-62
2023/05/11 07:18:00;;;;;;;13.90;4.00;;;;;;;15.23;59.29;100434.52;110436;1269;22251;-61
2023/05/11 07:20:31;;;;;;;13.80;2.40;;;;;;;15.31;59.01;100436.34;110489;1264;22330;-61
2023/05/11 07:23:02;;;;;;;13.00;3.30;;;;;;;15.38;58.87;100433.42;110502;1268;22239;-62
2023/05/11 07:25:33;;;;;;;12.10;3.00;;;;;;;15.46;58.93;100433.21;110485;1268;22287;-61
2023/05/11 07:28:04;;;;;;;15.90;3.50;;;;;;;15.54;58.76;100433.95;110532;1263;22317;-62
2023/05/11 07:30:34;;;;;;;14.10;3.20;;;;;;;15.62;58.65;100435.86;110377;1261;22296;-61
2023/05/11 07:33:05;;;;;;;12.60;3.50;;;;;;;15.69;58.47;100436.48;110481;1264;22196;-61
2023/05/11 07:35:36;;;;;;;14.00;3.20;;;;;;;15.77;58.33;100437.11;110459;1267;22334;-62
2023/05/11 07:38:10;;;;;;;11.90;3.40;;;;;;;15.82;58.13;100438.20;110443;1268;22317;-62
2023/05/11 07:40:41;;;;;;;14.00;3.80;;;;;;;15.88;58.09;100438.92;110406;1267;22292;-62
2023/05/11 07:43:12;;;;;;;12.10;3.10;;;;;;;15.94;57.66;100438.25;110475;1261;23037;-61
2023/05/11 07:45:43;;;;;;;18.10;4.00;;;;;;;15.99;57.81;100437.95;110443;1259;22144;-61
2023/05/11 07:48:13;;;;;;;14.60;4.20;;;;;;;16.09;57.77;100437.79;110449;1268;22221;-62
2023/05/11 07:50:44;;;;;;;13.80;3.70;;;;;;;16.19;57.60;100443.52;110458;1262;22192;-62
2023/05/11 07:53:15;;;;;;;11.40;3.20;;;;;;;16.29;57.29;100441.27;110470;1268;23198;-62
2023/05/11 07:55:46;;;;;;;15.30;3.60;;;;;;;16.39;57.38;100441.86;110410;1263;22512;-62
2023/05/11 07:58:17;;;;;;;11.90;3.80;;;;;;;16.49;57.05;100442.84;110465;1267;22819;-62
2023/05/11 08:00:48;;;;;;;12.70;3.20;;;;;;;16.58;56.93;100447.40;110478;1260;22231;-62
2023/05/11 08:03:19;;;;;;;13.30;3.40;;;;;;;16.68;56.89;100451.73;110470;1275;22253;-62
2023/05/11 08:05:49;;;;;;;15.70;3.30;;;;;;;16.77;56.75;100450.98;110466;1269;22242;-62
2023/05/11 08:08:21;;;;;;;16.20;4.40;;;;;;;16.84;56.53;100445.48;110443;1268;22353;-62
2023/05/11 08:10:51;;;;;;;16.50;3.40;;;;;;;16.93;56.58;100445.04;110454;1262;23307;-61
2023/05/11 08:13:22;;;;;;;14.20;3.50;;;;;;;17.03;56.32;100445.73;110462;1268;22412;-62
2023/05/11 08:15:53;;;;;;;16.50;4.30;;;;;;;17.08;56.08;100446.88;110446;1267;22243;-62
2023/05/11 08:18:25;;;;;;;13.60;2.80;;;;;;;17.14;55.93;100450.45;110449;1275;22349;-62
2023/05/11 08:20:56;;;;;;;15.30;3.30;;;;;;;17.18;55.77;100445.80;110449;1269;22462;-62
2023/05/11 08:23:27;;;;;;;14.40;3.80;;;;;;;17.16;55.57;100443.61;110452;1267;22377;-61
2023/05/11 08:25:58;;;;;;;16.80;4.30;;;;;;;17.15;55.52;100445.06;110424;1264;23344;-61
2023/05/11 08:28:29;;;;;;;23.60;7.40;;;;;;;17.14;55.79;100444.04;110461;1269;22262;-62
2023/05/11 08:31:00;;;;;;;16.90;5.30;;;;;;;17.19;55.73;100443.23;110452;1268;23154;-62
2023/05/11 08:33:31;;;;;;;17.10;4.60;;;;;;;17.23;55.66;100443.47;108094;1259;22934;-61
2023/05/11 08:36:03;;;;;;;17.50;5.20;;;;;;;17.29;56.00;100443.45;109915;1269;26202;-61
2023/05/11 08:38:34;;;;;;;17.70;4.30;;;;;;;17.36;55.55;100445.52;110420;1268;22334;-61
2023/05/11 08:41:06;;;;;;;12.70;2.90;;;;;;;17.43;55.46;100442.56;110418;1263;22351;-62
2023/05/11 08:43:39;;;;;;;13.30;3.20;;;;;;;17.49;55.09;100444.73;108210;1267;25355;-62
2023/05/11 08:46:11;;;;;;;21.00;8.20;;;;;;;17.56;55.38;100445.69;106374;1260;22531;-61
2023/05/11 08:48:44;;;;;;;18.00;6.70;;;;;;;17.67;55.45;100443.56;106471;1275;25338;-61
2023/05/11 08:51:16;;;;;;;23.70;10.00;;;;;;;17.75;54.93;100442.28;110438;1269;22194;-62
2023/05/11 08:53:46;;;;;;;15.90;5.00;;;;;;;17.82;54.77;100441.77;110402;1268;22434;-75
2023/05/11 08:56:18;;;;;;;12.70;3.10;;;;;;;17.91;54.33;100440.11;110337;1261;22217;-66
2023/05/11 08:58:50;;;;;;;16.50;5.70;;;;;;;17.98;54.15;100442.05;110400;1268;22178;-65
2023/05/11 09:01:23;;;;;;;14.10;2.90;;;;;;;18.08;54.36;100442.39;110367;1267;22335;-74
2023/05/11 09:03:55;;;;;;;15.20;3.90;;;;;;;18.14;53.63;100440.88;110420;1267;22744;-64
2023/05/11 09:06:27;;;;;;;9.20;2.80;;;;;;;18.18;53.76;100445.84;110448;1267;22273;-64
2023/05/11 09:08:59;;;;;;;12.40;3.90;;;;;;;18.22;53.58;100438.15;108038;1267;22523;-67
2023/05/11 09:11:30;;;;;;;12.10;2.90;;;;;;;18.28;53.13;100439.06;106333;1267;23553;-58
2023/05/11 09:14:02;;;;;;;10.20;2.40;;;;;;;18.39;53.45;100435.52;110417;1267;22975;-59
2023/05/11 09:16:33;;;;;;;7.90;1.70;;;;;;;18.53;53.08;100434.69;110453;1260;23152;-60
2023/05/11 09:19:04;;;;;;;9.30;1.80;;;;;;;18.65;52.62;100432.73;110464;1268;22141;-60
2023/05/11 09:21:35;;;;;;;8.80;1.60;;;;;;;18.75;52.61;100432.40;110414;1267;22374;-60
2023/05/11 09:24:07;;;;;;;5.60;1.60;;;;;;;18.93;52.27;100430.70;110471;1275;22162;-59
2023/05/11 09:26:37;;;;;;;9.20;1.70;;;;;;;19.10;52.15;100432.65;110428;1268;23447;-60
2023/05/11 09:29:08;;;;;;;9.70;1.50;;;;;;;19.20;51.07;100433.29;110499;1261;22294;-60
2023/05/11 09:31:44;;;;;;;9.10;1.60;;;;;;;19.24;51.06;100430.30;110421;1263;22399;-60
2023/05/11 09:34:17;;;;;;;7.30;1.60;;;;;;;19.31;50.57;100430.16;110471;1261;22883;-59
2023/05/11 09:36:50;;;;;;;9.90;2.50;;;;;;;19.40;50.05;100427.86;110461;1259;23247;-60
2023/05/11 09:39:30;;;;;;;10.60;2.20;;;;;;;19.51;49.76;100426.69;110476;1275;23054;-60
2023/05/11 09:42:21;;;;;;;8.20;1.20;;;;;;;19.63;49.10;100419.04;110453;1262;23271;-60
2023/05/11 09:44:52;;;;;;;9.20;2.20;;;;;;;19.79;49.50;100421.51;110429;1269;22901;-60
2023/05/11 09:47:23;;;;;;;15.40;6.50;;;;;;;19.97;49.37;100420.05;110442;1269;22139;-60
2023/05/11 09:49:54;;;;;;;12.90;2.50;;;;;;;20.13;48.65;100421.77;110463;1272;23009;-60
2023/05/11 09:52:25;;;;;;;8.80;1.40;;;;;;;20.21;47.86;100423.21;110490;1268;22369;-60
2023/05/11 09:54:56;;;;;;;12.10;1.40;;;;;;;20.22;47.54;100425.05;110431;1262;23072;-60
2023/05/11 09:57:28;;;;;;;10.50;1.30;;;;;;;20.18;47.55;100420.96;110495;1267;23036;-61
2023/05/11 10:00:00;;;;;;;4.80;1.20;;;;;;;20.14;46.78;100415.98;110450;1263;22337;-60
2023/05/11 10:02:32;;;;;;;4.60;1.20;;;;;;;20.16;46.73;100413.63;108002;1267;25434;-59
2023/05/11 10:05:11;;;;;;;6.70;1.20;;;;;;;20.20;46.58;100411.21;106416;1269;22522;-59
2023/05/11 10:07:42;;;;;;;8.20;1.10;;;;;;;20.21;45.96;100408.27;110376;1267;22221;-60
2023/05/11 10:10:14;;;;;;;6.80;1.50;;;;;;;20.25;46.18;100407.08;110380;1268;22315;-63
2023/05/11 10:12:45;;;;;;;6.80;1.40;;;;;;;20.32;46.31;100407.20;110419;1260;22431;-60
2023/05/11 10:15:20;;;;;;;4.80;1.30;;;;;;;20.43;46.00;100407.20;110445;1272;22254;-60
2023/05/11 10:17:51;;;;;;;9.60;1.20;;;;;;;20.50;45.94;100404.34;110423;1267;23143;-60
2023/05/11 10:20:22;;;;;;;4.30;1.00;;;;;;;20.59;45.25;100402.35;110446;1263;22358;-60
2023/05/11 10:22:54;;;;;;;6.50;1.50;;;;;;;20.59;44.20;100398.49;110402;1264;23109;-60
2023/05/11 10:25:26;;;;;;;6.60;1.50;;;;;;;20.65;44.74;100400.44;110409;1268;22214;-60
2023/05/11 10:27:58;;;;;;;5.80;1.20;;;;;;;20.78;44.86;100397.38;110444;1269;22209;-60
2023/05/11 10:30:30;;;;;;;3.70;0.90;;;;;;;20.92;43.93;100389.10;110455;1269;22176;-60
2023/05/11 10:33:03;;;;;;;10.60;1.60;;;;;;;21.02;43.80;100388.52;109469;1275;23967;-58
2023/05/11 10:35:37;;;;;;;8.20;1.10;;;;;;;21.05;43.69;100396.36;106505;1275;22542;-60
2023/05/11 10:38:08;;;;;;;6.10;1.30;;;;;;;21.01;43.35;100395.12;110439;1268;22163;-60
2023/05/11 10:40:42;;;;;;;4.90;1.20;;;;;;;20.98;43.23;100394.81;110498;1269;22472;-60
2023/05/11 10:43:26;;;;;;;3.70;1.10;;;;;;;20.93;42.76;100392.17;110497;1271;22210;-60
2023/05/11 10:46:08;;;;;;;8.10;1.30;;;;;;;20.91;42.93;100388.82;110450;1259;22499;-60
2023/05/11 10:49:09;;;;;;;7.70;1.10;;;;;;;20.90;42.08;100386.30;110440;1259;22346;-60
2023/05/11 10:52:04;;;;;;;5.60;1.40;;;;;;;20.87;42.00;100388.19;110428;1259;22380;-59
2023/05/11 10:54:51;;;;;;;5.70;1.00;;;;;;;20.83;42.05;100382.89;110492;1262;22314;-60
2023/05/11 10:57:43;;;;;;;7.20;1.20;;;;;;;20.85;41.72;100380.06;110419;1264;22233;-55
2023/05/11 11:00:51;;;;;;;7.00;1.10;;;;;;;20.85;41.49;100377.34;110474;1269;22383;-56
2023/05/11 11:03:22;;;;;;;4.50;1.00;;;;;;;20.88;41.17;100374.23;110445;1268;22301;-57
2023/05/11 11:05:53;;;;;;;6.00;1.00;;;;;;;20.90;40.98;100374.52;110446;1260;22198;-55
2023/05/11 11:08:24;;;;;;;5.70;0.90;;;;;;;20.94;40.48;100375.38;110447;1264;22392;-59
2023/05/11 11:10:55;;;;;;;4.90;1.00;;;;;;;20.97;40.29;100378.33;110430;1269;23111;-59
2023/05/11 11:13:27;;;;;;;5.30;0.90;;;;;;;20.95;40.19;100374.17;110405;1269;23164;-59
2023/05/11 11:16:14;;;;;;;3.80;0.90;;;;;;;20.92;40.30;100376.04;110446;1268;22710;-59
2023/05/11 11:18:44;;;;;;;8.00;1.20;;;;;;;20.91;40.00;100373.94;110448;1259;22226;-58
2023/05/11 11:21:42;;;;;;;4.00;0.80;;;;;;;20.92;40.18;100374.71;110471;1271;23042;-59
2023/05/11 11:24:46;;;;;;;4.10;0.90;;;;;;;20.99;39.62;100376.73;110446;1271;23058;-59
2023/05/11 11:27:17;;;;;;;4.20;1.10;;;;;;;21.05;39.51;100377.63;110457;1275;23615;-58
2023/05/11 11:32:56;;;;;;;5.50;0.90;;;;;;;21.10;39.06;100376.48;102780;1308;545751;-57
2023/05/11 11:35:48;;;;;;;4.90;1.00;;;;;;;21.07;38.64;100372.47;109840;1274;22159;-58
2023/05/11 11:38:20;;;;;;;6.70;1.10;;;;;;;21.12;39.07;100375.86;110002;1268;22209;-58
2023/05/11 11:40:51;;;;;;;4.80;1.00;;;;;;;21.17;38.37;100374.10;109945;1275;22726;-58
2023/05/11 11:43:24;;;;;;;7.70;1.30;;;;;;;21.10;38.48;100371.25;109987;1273;22212;-58